Time;durP1;ratioP1;P1;durP2;ratioP2;P2;SDS_P1;SDS_P2;PMS_P1;PMS_P2;Temp;Humidity;BMP_temperature;BMP_pressure;BME280_temperature;BME280_humidity;BME280_pressure;Samples;Min_cycle;Max_cycle;Signal;HPM_P1;HPM_P2
2021/04/17 00:00:10;;;;;;;24.20;18.33;;;;;;;2.31;88.00;96445.84;1044231;28;20029;-71
2021/04/17 00:00:40;;;;;;;25.23;18.00;;;;;;;2.30;87.82;96444.19;1044110;28;20028;-72
2021/04/17 00:01:10;;;;;;;24.20;18.87;;;;;;;2.26;87.83;96448.28;1044179;28;20032;-71
2021/04/17 00:01:41;;;;;;;24.00;19.40;;;;;;;2.31;87.98;96446.66;1048015;28;20027;-71
2021/04/17 00:02:11;;;;;;;23.67;18.53;;;;;;;2.30;87.61;96446.84;1044582;28;20092;-71
2021/04/17 00:02:42;;;;;;;24.97;19.53;;;;;;;2.29;87.89;96443.41;1039558;28;20022;-71
2021/04/17 00:03:12;;;;;;;23.20;17.53;;;;;;;2.32;87.77;96443.00;1039576;28;20068;-71
2021/04/17 00:03:43;;;;;;;23.40;18.50;;;;;;;2.35;87.40;96439.13;1039554;28;20080;-70
2021/04/17 00:04:13;;;;;;;23.27;17.90;;;;;;;2.28;87.17;96440.97;1043108;28;20064;-70
2021/04/17 00:04:44;;;;;;;23.63;18.27;;;;;;;2.26;87.84;96441.19;1047983;28;20039;-71
2021/04/17 00:05:14;;;;;;;23.87;18.17;;;;;;;2.27;88.25;96436.72;1047882;28;20052;-71
2021/04/17 00:05:44;;;;;;;24.60;19.03;;;;;;;2.24;88.00;96434.47;1047867;28;20488;-71
2021/04/17 00:06:15;;;;;;;23.37;18.93;;;;;;;2.21;88.56;96435.72;1044213;28;20029;-71
2021/04/17 00:06:45;;;;;;;23.73;18.63;;;;;;;2.23;88.01;96435.50;1047766;28;20033;-72
2021/04/17 00:07:16;;;;;;;23.60;18.20;;;;;;;2.22;88.08;96445.25;1039429;28;20112;-71
2021/04/17 00:07:47;;;;;;;24.50;19.17;;;;;;;2.23;87.93;96436.31;1039718;28;20025;-72
2021/04/17 00:08:17;;;;;;;26.50;18.83;;;;;;;2.20;87.70;96444.66;1039740;28;20487;-71
2021/04/17 00:08:48;;;;;;;24.53;19.23;;;;;;;2.19;88.60;96439.56;1035677;28;20444;-71
2021/04/17 00:09:23;;;;;;;25.00;18.70;;;;;;;2.19;88.12;96436.94;1031515;28;20030;-71
2021/04/17 00:09:53;;;;;;;24.75;18.95;;;;;;;2.20;88.63;96444.66;1031613;28;20475;-71
2021/04/17 00:10:24;;;;;;;26.10;19.77;;;;;;;2.21;88.43;96435.72;1032257;28;20034;-71
2021/04/17 00:10:54;;;;;;;25.10;19.20;;;;;;;2.25;88.29;96441.38;1037063;28;20052;-72
2021/04/17 00:11:25;;;;;;;22.93;18.73;;;;;;;2.28;87.82;96433.06;1039645;28;20065;-71
2021/04/17 00:11:58;;;;;;;24.67;19.00;;;;;;;2.23;87.91;96436.31;1039496;28;20025;-71
2021/04/17 00:12:28;;;;;;;22.58;17.77;;;;;;;2.27;88.03;96429.63;1039100;28;20515;-71
2021/04/17 00:12:59;;;;;;;23.30;18.50;;;;;;;2.26;87.61;96438.56;1036065;28;20065;-71
2021/04/17 00:13:29;;;;;;;25.53;19.27;;;;;;;2.28;88.28;96436.50;1039634;28;20054;-71
2021/04/17 00:13:59;;;;;;;22.90;17.70;;;;;;;2.27;88.31;96439.34;1035582;28;20093;-72
2021/04/17 00:14:31;;;;;;;24.37;19.23;;;;;;;2.29;88.44;96432.03;1035593;28;20057;-72
2021/04/17 00:15:02;;;;;;;23.02;17.48;;;;;;;2.28;88.37;96435.69;1035882;28;20526;-71
2021/04/17 00:15:33;;;;;;;24.67;19.02;;;;;;;2.27;88.18;96434.09;1039843;28;20032;-72
2021/04/17 00:16:03;;;;;;;23.27;18.33;;;;;;;2.21;87.99;96438.34;1040613;28;20037;-71
2021/04/17 00:16:34;;;;;;;23.93;18.80;;;;;;;2.23;87.96;96423.13;1044462;28;20069;-72
2021/04/17 00:17:05;;;;;;;23.90;18.97;;;;;;;2.26;88.28;96437.75;1044610;28;20013;-72
2021/04/17 00:17:35;;;;;;;26.87;20.00;;;;;;;2.21;88.30;96429.63;1040365;28;20028;-71
2021/04/17 00:18:05;;;;;;;26.43;18.97;;;;;;;2.24;88.24;96430.00;1040524;28;20260;-71
2021/04/17 00:18:36;;;;;;;24.57;18.60;;;;;;;2.24;88.63;96434.47;1040487;28;20080;-71
2021/04/17 00:19:06;;;;;;;25.10;19.93;;;;;;;2.23;88.72;96427.59;1036456;28;20080;-71
2021/04/17 00:19:37;;;;;;;24.53;19.87;;;;;;;2.28;87.87;96433.06;1040555;28;20136;-71
2021/04/17 00:20:08;;;;;;;26.60;19.87;;;;;;;2.24;88.12;96432.66;1036374;28;20072;-71
2021/04/17 00:20:38;;;;;;;25.00;19.70;;;;;;;2.24;88.39;96430.00;1036582;28;20065;-71
2021/04/17 00:21:09;;;;;;;25.17;19.63;;;;;;;2.27;88.24;96426.16;1040514;28;20026;-71
2021/04/17 00:21:40;;;;;;;25.48;20.23;;;;;;;2.28;87.77;96428.59;1040554;28;20414;-72
2021/04/17 00:22:11;;;;;;;23.83;19.13;;;;;;;2.29;88.43;96429.41;1044655;28;20025;-72
2021/04/17 00:22:41;;;;;;;26.47;19.17;;;;;;;2.28;88.28;96430.41;1044542;28;20082;-71
2021/04/17 00:23:12;;;;;;;23.83;19.03;;;;;;;2.28;87.68;96436.50;1044523;28;20024;-71
2021/04/17 00:23:42;;;;;;;26.17;19.40;;;;;;;2.27;87.83;96436.72;1040358;28;20571;-71
2021/04/17 00:24:12;;;;;;;24.03;18.43;;;;;;;2.28;88.40;96430.41;1040461;28;20025;-71
2021/04/17 00:24:43;;;;;;;24.90;19.43;;;;;;;2.21;87.89;96430.44;1044466;28;20021;-71
2021/04/17 00:25:14;;;;;;;25.80;19.67;;;;;;;2.21;88.80;96425.16;1045081;28;20021;-71
2021/04/17 00:25:44;;;;;;;26.37;19.90;;;;;;;2.21;88.40;96429.63;1046374;28;20135;-72
2021/04/17 00:26:15;;;;;;;25.93;19.83;;;;;;;2.22;88.21;96431.25;1046429;28;20032;-72
2021/04/17 00:26:45;;;;;;;26.43;19.10;;;;;;;2.21;88.49;96427.00;1044952;28;20466;-72
2021/04/17 00:27:16;;;;;;;23.43;18.70;;;;;;;2.15;88.34;96428.63;1044270;28;20029;-71
2021/04/17 00:27:46;;;;;;;26.50;19.07;;;;;;;2.16;88.54;96421.53;1044652;28;20032;-71
2021/04/17 00:28:17;;;;;;;25.73;18.93;;;;;;;2.16;88.83;96430.25;1044402;28;20358;-71
2021/04/17 00:28:47;;;;;;;26.00;18.93;;;;;;;2.15;88.95;96422.53;1044509;28;20020;-71
2021/04/17 00:29:17;;;;;;;25.77;20.37;;;;;;;2.13;88.88;96427.22;1044576;28;20319;-71
2021/04/17 00:29:48;;;;;;;24.60;19.50;;;;;;;2.09;88.95;96427.59;1044458;28;20478;-71
2021/04/17 00:30:19;;;;;;;24.40;19.27;;;;;;;2.07;88.65;96427.00;1044520;28;20025;-71
2021/04/17 00:30:49;;;;;;;24.67;19.67;;;;;;;2.05;89.12;96423.78;1044877;28;20032;-71
2021/04/17 00:31:20;;;;;;;26.93;19.60;;;;;;;2.05;89.69;96425.63;1044917;28;20142;-71
2021/04/17 00:31:50;;;;;;;26.07;19.73;;;;;;;2.03;89.03;96423.16;1044523;28;20094;-71
2021/04/17 00:32:20;;;;;;;24.67;19.97;;;;;;;2.03;89.38;96425.00;1044488;28;20466;-71
2021/04/17 00:32:51;;;;;;;26.57;20.33;;;;;;;2.01;88.98;96419.94;1044615;28;20389;-71
2021/04/17 00:33:21;;;;;;;26.10;19.37;;;;;;;2.00;89.57;96422.78;1044649;28;20059;-71
2021/04/17 00:33:52;;;;;;;26.20;19.50;;;;;;;1.98;89.72;96428.25;1044528;28;20124;-71
2021/04/17 00:34:22;;;;;;;24.47;18.93;;;;;;;2.00;89.38;96409.59;1044520;28;20070;-71
2021/04/17 00:34:53;;;;;;;24.73;19.60;;;;;;;1.97;89.74;96418.72;1044291;28;20055;-71
2021/04/17 00:35:23;;;;;;;24.80;19.27;;;;;;;1.94;89.38;96413.03;1044446;28;20025;-71
2021/04/17 00:35:53;;;;;;;24.60;18.40;;;;;;;1.92;89.32;96422.97;1044684;28;20029;-71
2021/04/17 00:36:24;;;;;;;25.30;19.53;;;;;;;1.88;89.59;96414.66;1044782;28;20021;-71
2021/04/17 00:36:54;;;;;;;26.90;19.77;;;;;;;1.87;90.31;96420.97;1044505;28;20028;-71
2021/04/17 00:37:25;;;;;;;25.10;19.30;;;;;;;1.86;89.57;96416.72;1044430;28;20092;-71
2021/04/17 00:37:55;;;;;;;26.53;18.50;;;;;;;1.88;89.75;96414.66;1040363;28;20028;-70
2021/04/17 00:38:25;;;;;;;24.07;19.07;;;;;;;1.89;90.16;96418.91;1040369;28;20029;-70
2021/04/17 00:38:56;;;;;;;23.37;18.37;;;;;;;1.87;90.13;96414.88;1040408;28;20052;-71
2021/04/17 00:39:26;;;;;;;25.03;18.87;;;;;;;1.86;89.98;96421.97;1044451;28;20075;-71
2021/04/17 00:39:57;;;;;;;26.30;19.27;;;;;;;1.87;89.84;96417.50;1044398;28;20021;-71
2021/04/17 00:40:27;;;;;;;25.57;19.70;;;;;;;1.84;90.31;96410.81;1044544;28;20027;-71
2021/04/17 00:40:59;;;;;;;25.00;18.43;;;;;;;1.83;90.01;96414.47;1044480;28;20116;-71
2021/04/17 00:41:29;;;;;;;24.38;18.55;;;;;;;1.82;89.73;96410.22;1044450;28;20025;-71
2021/04/17 00:41:59;;;;;;;25.67;20.10;;;;;;;1.80;89.73;96412.25;1044710;28;20033;-71
2021/04/17 00:42:30;;;;;;;26.37;19.67;;;;;;;1.75;90.64;96412.88;1044469;28;20033;-71
2021/04/17 00:43:00;;;;;;;24.87;19.50;;;;;;;1.72;90.78;96412.47;1040288;28;20021;-71
2021/04/17 00:43:31;;;;;;;25.03;18.90;;;;;;;1.74;90.72;96407.78;1040339;28;20076;-72
2021/04/17 00:44:02;;;;;;;26.27;19.80;;;;;;;1.72;90.34;96410.63;1040374;28;20545;-71
2021/04/17 00:44:34;;;;;;;24.00;19.05;;;;;;;1.74;90.87;96402.50;1044479;28;20452;-71
2021/04/17 00:45:05;;;;;;;24.25;19.08;;;;;;;1.76;90.81;96408.41;1044580;28;20017;-72
2021/04/17 00:45:36;;;;;;;25.02;19.70;;;;;;;1.77;90.40;96405.56;1044302;28;20021;-71
2021/04/17 00:46:06;;;;;;;26.47;18.93;;;;;;;1.79;90.00;96406.19;1044359;28;20058;-72
2021/04/17 00:46:37;;;;;;;23.50;18.60;;;;;;;1.79;89.91;96408.81;1040443;28;20061;-72
2021/04/17 00:47:07;;;;;;;24.70;18.70;;;;;;;1.80;89.99;96409.63;1040140;28;20014;-72
2021/04/17 00:47:38;;;;;;;24.87;18.77;;;;;;;1.80;90.45;96405.16;1036305;28;20034;-71
2021/04/17 00:48:08;;;;;;;24.87;19.87;;;;;;;1.83;90.12;96406.56;1036325;28;20036;-71
2021/04/17 00:48:41;;;;;;;24.47;19.43;;;;;;;1.83;90.47;96401.28;1032321;28;20488;-72
2021/04/17 00:49:12;;;;;;;25.13;19.02;;;;;;;1.83;90.07;96394.19;1028571;28;20031;-71
2021/04/17 00:49:42;;;;;;;25.30;19.37;;;;;;;1.82;90.29;96404.94;1032477;28;20038;-71
2021/04/17 00:50:13;;;;;;;27.03;20.00;;;;;;;1.81;90.01;96405.97;1029194;28;20378;-72
2021/04/17 00:50:45;;;;;;;24.93;19.80;;;;;;;1.79;90.64;96403.53;1036353;28;20106;-71
2021/04/17 00:51:15;;;;;;;24.17;18.45;;;;;;;1.83;90.14;96401.28;1040317;28;20036;-72
2021/04/17 00:51:46;;;;;;;24.93;19.77;;;;;;;1.82;89.93;96402.31;1039723;28;20185;-72
2021/04/17 00:52:16;;;;;;;29.33;19.43;;;;;;;1.79;89.85;96398.28;1040241;28;20037;-72
2021/04/17 00:52:47;;;;;;;25.20;20.03;;;;;;;1.78;90.57;96398.47;1040219;28;20025;-71
2021/04/17 00:53:17;;;;;;;25.83;19.00;;;;;;;1.76;90.58;96395.22;1040295;28;20088;-71
2021/04/17 00:53:49;;;;;;;24.63;19.00;;;;;;;1.76;90.50;96395.22;1040390;28;20113;-71
2021/04/17 00:54:20;;;;;;;25.80;19.33;;;;;;;1.76;90.02;96397.88;1044477;28;20482;-71
2021/04/17 00:54:50;;;;;;;30.63;20.73;;;;;;;1.78;90.46;96391.34;1044454;28;20029;-72
2021/04/17 00:55:21;;;;;;;27.93;20.70;;;;;;;1.83;90.79;96396.81;1040236;28;20025;-72
2021/04/17 00:55:51;;;;;;;26.33;20.07;;;;;;;1.85;90.23;96393.19;1040264;28;20017;-71
2021/04/17 00:56:22;;;;;;;25.07;19.27;;;;;;;1.83;90.91;96393.38;1040308;28;20029;-71
2021/04/17 00:56:52;;;;;;;25.17;19.77;;;;;;;1.83;90.57;96396.03;1040301;28;20026;-71
2021/04/17 00:57:22;;;;;;;24.90;19.33;;;;;;;1.85;90.85;96390.56;1044430;28;20059;-71
2021/04/17 00:57:53;;;;;;;26.57;19.63;;;;;;;1.87;90.00;96391.16;1044498;28;20478;-71
2021/04/17 00:58:23;;;;;;;28.23;20.83;;;;;;;1.88;90.25;96390.94;1044470;28;20012;-71
2021/04/17 00:58:54;;;;;;;26.13;18.93;;;;;;;1.87;90.46;96397.25;1044435;28;20029;-72
2021/04/17 00:59:24;;;;;;;25.40;19.83;;;;;;;1.89;89.64;96386.47;1040166;28;20028;-72
2021/04/17 00:59:54;;;;;;;26.87;20.03;;;;;;;1.87;90.02;96385.88;1040243;28;20020;-72
2021/04/17 01:00:25;;;;;;;28.80;20.17;;;;;;;1.84;90.32;96384.44;1038014;28;20025;-72
2021/04/17 01:00:55;;;;;;;28.17;19.77;;;;;;;1.82;90.42;96381.22;1039956;28;20030;-72
2021/04/17 01:01:26;;;;;;;28.53;20.37;;;;;;;1.81;90.06;96387.53;1044203;28;20028;-72
2021/04/17 01:01:56;;;;;;;29.03;20.87;;;;;;;1.80;90.41;96383.28;1044293;28;20104;-72
2021/04/17 01:02:33;;;;;;;28.77;21.23;;;;;;;1.78;90.27;96385.28;1044793;28;20029;-72
2021/04/17 01:03:06;;;;;;;29.08;20.75;;;;;;;1.78;90.95;96387.91;1044369;28;20029;-72
2021/04/17 01:03:39;;;;;;;25.08;19.83;;;;;;;1.78;90.78;96385.28;1044274;28;20025;-71
2021/04/17 01:04:29;;;;;;;25.13;19.55;;;;;;;1.76;90.30;96390.75;1040176;28;20026;-71
2021/04/17 01:04:59;;;;;;;28.67;19.83;;;;;;;1.80;90.65;96388.53;1039772;28;20021;-71
2021/04/17 01:05:30;;;;;;;27.77;19.40;;;;;;;1.79;90.13;96384.25;1040177;28;20475;-71
2021/04/17 01:06:04;;;;;;;25.70;19.37;;;;;;;1.84;90.19;96387.09;1034686;28;20076;-72
2021/04/17 01:06:58;;;;;;;29.05;19.05;;;;;;;1.82;90.28;96386.50;1035271;28;20018;-72
2021/04/17 01:07:46;;;;;;;26.90;19.83;;;;;;;1.78;90.63;96378.19;1036201;28;20061;-71
2021/04/17 01:08:35;;;;;;;25.75;19.55;;;;;;;1.75;90.22;96385.72;1041994;28;20021;-71
2021/04/17 01:09:13;;;;;;;27.02;19.70;;;;;;;1.74;90.54;96381.44;1044278;28;20400;-72
2021/04/17 01:10:06;;;;;;;27.73;19.95;;;;;;;1.72;90.72;96383.47;1036013;28;20030;-71
2021/04/17 01:10:38;;;;;;;27.55;19.58;;;;;;;1.67;90.63;96381.44;1032001;28;20023;-72
2021/04/17 01:11:14;;;;;;;30.17;20.02;;;;;;;1.65;90.58;96383.50;1036223;28;20113;-71
2021/04/17 01:11:45;;;;;;;28.15;19.73;;;;;;;1.63;90.91;96382.06;1036144;28;20053;-71
2021/04/17 01:12:17;;;;;;;28.60;20.17;;;;;;;1.59;90.92;96384.31;1033287;28;20559;-72
2021/04/17 01:12:50;;;;;;;29.13;21.23;;;;;;;1.57;91.75;96383.69;1036218;28;20580;-71
2021/04/17 01:13:21;;;;;;;28.65;19.88;;;;;;;1.55;91.72;96381.25;1037660;28;20026;-72
2021/04/17 01:13:52;;;;;;;26.67;20.00;;;;;;;1.54;91.52;96390.19;1044100;28;20324;-72
2021/04/17 01:14:22;;;;;;;27.17;20.90;;;;;;;1.54;91.54;96392.81;1040294;28;20040;-71
2021/04/17 01:14:53;;;;;;;31.60;20.97;;;;;;;1.51;91.40;96385.31;1036224;28;20033;-72
2021/04/17 01:15:23;;;;;;;31.60;20.87;;;;;;;1.51;91.94;96381.88;1032164;28;20022;-71
2021/04/17 01:15:54;;;;;;;28.30;19.60;;;;;;;1.49;92.14;96382.06;1032259;28;20653;-71
2021/04/17 01:16:24;;;;;;;29.37;20.83;;;;;;;1.51;92.04;96385.31;1036184;28;20104;-71
2021/04/17 01:16:55;;;;;;;30.07;20.57;;;;;;;1.52;91.67;96389.56;1032331;28;20014;-71
2021/04/17 01:17:25;;;;;;;27.27;20.23;;;;;;;1.49;92.03;96389.16;1040281;28;20025;-72
2021/04/17 01:17:57;;;;;;;28.13;19.83;;;;;;;1.48;91.97;96392.78;1040300;28;20021;-71
2021/04/17 01:18:27;;;;;;;26.83;20.65;;;;;;;1.47;92.04;96389.34;1036343;28;20072;-71
2021/04/17 01:18:58;;;;;;;26.10;20.63;;;;;;;1.50;92.02;96382.88;1040152;28;20413;-72
2021/04/17 01:19:50;;;;;;;27.83;20.10;;;;;;;1.45;92.67;96378.22;1036232;28;20356;-71
2021/04/17 01:20:29;;;;;;;29.30;20.58;;;;;;;1.46;92.23;96389.56;1035242;28;20026;-71
2021/04/17 01:21:00;;;;;;;26.45;19.92;;;;;;;1.47;92.28;96392.00;1040404;28;20067;-72
2021/04/17 01:21:30;;;;;;;27.70;19.97;;;;;;;1.45;92.02;96386.13;1035933;28;20099;-72
2021/04/17 01:22:00;;;;;;;28.03;20.90;;;;;;;1.44;92.17;96383.69;1033331;28;20527;-71
2021/04/17 01:22:31;;;;;;;30.53;20.57;;;;;;;1.46;92.35;96386.94;1028082;28;20029;-71
2021/04/17 01:23:17;;;;;;;27.10;20.07;;;;;;;1.43;91.92;96393.41;1025303;28;20026;-71
2021/04/17 01:23:57;;;;;;;28.67;20.90;;;;;;;1.42;92.07;96397.06;1026202;28;20568;-71
2021/04/17 01:24:27;;;;;;;27.60;20.75;;;;;;;1.40;92.53;96393.00;1031379;28;20371;-72
2021/04/17 01:25:11;;;;;;;31.83;21.17;;;;;;;1.38;92.42;96389.75;1030854;28;20018;-71
2021/04/17 01:25:47;;;;;;;27.55;20.38;;;;;;;1.39;93.03;96386.94;1031211;28;20416;-72
2021/04/17 01:26:19;;;;;;;27.20;19.95;;;;;;;1.44;92.51;96395.03;1032130;28;20026;-72
2021/04/17 01:26:49;;;;;;;26.50;18.85;;;;;;;1.45;92.73;96388.75;1032035;28;20038;-72
2021/04/17 01:27:20;;;;;;;26.67;20.60;;;;;;;1.43;92.43;96382.06;1029942;28;20026;-71
2021/04/17 01:27:50;;;;;;;31.13;20.03;;;;;;;1.41;92.77;96387.53;1028379;28;20357;-72
2021/04/17 01:28:21;;;;;;;28.43;20.90;;;;;;;1.40;92.11;96393.81;1032167;28;20022;-72
2021/04/17 01:28:54;;;;;;;30.55;20.40;;;;;;;1.38;92.81;96390.56;1028179;28;20054;-71
2021/04/17 01:29:24;;;;;;;27.20;20.08;;;;;;;1.36;92.69;96394.44;1033266;28;20026;-73
2021/04/17 01:29:54;;;;;;;31.03;21.23;;;;;;;1.33;92.65;96382.47;1037961;28;20025;-72
2021/04/17 01:30:25;;;;;;;31.77;20.87;;;;;;;1.33;93.03;96386.91;1034285;28;20027;-72
2021/04/17 01:30:56;;;;;;;30.77;20.80;;;;;;;1.32;92.55;96388.75;1037373;28;20045;-72
2021/04/17 01:31:32;;;;;;;31.98;21.63;;;;;;;1.30;92.99;96386.31;1040466;28;20021;-72
2021/04/17 01:32:04;;;;;;;28.33;21.25;;;;;;;1.29;92.79;96391.78;1037752;28;20486;-72
2021/04/17 01:32:34;;;;;;;29.60;22.23;;;;;;;1.29;92.89;96383.91;1038283;28;20022;-71
2021/04/17 01:33:04;;;;;;;27.93;20.53;;;;;;;1.28;93.02;96385.72;1035384;28;20022;-71
2021/04/17 01:33:37;;;;;;;29.63;21.10;;;;;;;1.27;93.18;96394.59;1038120;28;20129;-72
2021/04/17 01:34:07;;;;;;;31.13;21.25;;;;;;;1.26;92.78;96385.09;1038236;28;20021;-71
2021/04/17 01:34:39;;;;;;;30.60;21.07;;;;;;;1.26;93.22;96389.56;1034544;28;20085;-70
2021/04/17 01:35:12;;;;;;;29.42;21.98;;;;;;;1.25;93.09;96388.75;1036695;28;20070;-71
2021/04/17 01:35:43;;;;;;;29.15;21.10;;;;;;;1.25;93.61;96383.47;1036270;28;20014;-70
2021/04/17 01:36:14;;;;;;;28.48;21.00;;;;;;;1.22;93.26;96377.78;1032969;28;20018;-72
2021/04/17 01:36:44;;;;;;;32.63;22.07;;;;;;;1.20;93.53;96385.91;1032499;28;20030;-72
2021/04/17 01:37:15;;;;;;;30.17;21.60;;;;;;;1.17;93.44;96377.59;1032001;28;20495;-71
2021/04/17 01:37:51;;;;;;;31.23;22.23;;;;;;;1.18;93.10;96385.31;1031999;28;20031;-71
2021/04/17 01:38:29;;;;;;;29.05;21.13;;;;;;;1.18;93.65;96382.69;1032950;28;20117;-71
2021/04/17 01:39:01;;;;;;;33.88;21.35;;;;;;;1.14;93.18;96381.44;1033768;28;20462;-71
2021/04/17 01:39:31;;;;;;;28.90;21.27;;;;;;;1.15;93.18;96385.69;1034062;28;20023;-72
2021/04/17 01:40:01;;;;;;;29.37;20.70;;;;;;;1.15;93.40;96383.06;1032140;28;20041;-72
2021/04/17 01:40:32;;;;;;;29.50;21.27;;;;;;;1.13;94.08;96385.09;1032047;28;20146;-72
2021/04/17 01:41:27;;;;;;;33.03;22.57;;;;;;;1.08;94.07;96376.19;1032324;28;20018;-71
2021/04/17 01:42:02;;;;;;;31.25;22.13;;;;;;;1.08;94.08;96384.09;1036130;28;20383;-72
2021/04/17 01:42:32;;;;;;;30.95;21.23;;;;;;;1.04;93.89;96379.22;1032000;28;20018;-72
2021/04/17 01:43:03;;;;;;;32.60;22.37;;;;;;;1.03;94.12;96385.50;1031997;28;20025;-72
2021/04/17 01:43:33;;;;;;;30.37;21.97;;;;;;;1.01;94.22;96387.50;1028826;28;20084;-72
2021/04/17 01:44:07;;;;;;;31.23;21.17;;;;;;;1.01;93.99;96387.50;1032593;28;20085;-71
2021/04/17 01:44:41;;;;;;;30.30;21.92;;;;;;;1.02;94.24;96383.03;1040154;28;20026;-71
2021/04/17 01:45:12;;;;;;;31.20;22.85;;;;;;;0.98;94.23;96387.91;1036902;28;20034;-72
2021/04/17 01:45:43;;;;;;;33.58;23.65;;;;;;;0.96;94.45;96383.84;1039935;28;20068;-72
2021/04/17 01:46:16;;;;;;;31.70;22.30;;;;;;;0.94;95.18;96386.69;1039999;28;20029;-71
2021/04/17 01:46:49;;;;;;;33.35;22.55;;;;;;;0.90;95.18;96379.38;1032752;28;20060;-72
2021/04/17 01:47:19;;;;;;;29.75;22.10;;;;;;;0.89;95.14;96372.50;1035897;28;20418;-71
2021/04/17 01:47:50;;;;;;;32.43;23.07;;;;;;;0.88;95.02;96378.78;1031182;28;20042;-72
2021/04/17 01:48:21;;;;;;;34.60;23.10;;;;;;;0.84;95.65;96386.25;1028833;28;20085;-72
2021/04/17 01:48:55;;;;;;;31.93;23.40;;;;;;;0.83;95.27;96387.28;1036448;28;20383;-72
2021/04/17 01:49:26;;;;;;;31.70;23.00;;;;;;;0.84;95.92;96385.44;1036732;28;20025;-72
2021/04/17 01:49:57;;;;;;;31.17;22.08;;;;;;;0.82;95.89;96385.66;1040159;28;20501;-72
2021/04/17 01:50:28;;;;;;;29.57;21.23;;;;;;;0.82;95.90;96380.38;1035414;28;20026;-72
2021/04/17 01:50:58;;;;;;;32.28;23.23;;;;;;;0.83;95.48;96383.84;1036680;28;20029;-72
2021/04/17 01:51:29;;;;;;;31.03;21.60;;;;;;;0.80;95.86;96381.59;1040152;28;20017;-71
2021/04/17 01:51:59;;;;;;;31.10;22.03;;;;;;;0.78;95.74;96377.34;1040311;28;20017;-72
2021/04/17 01:52:29;;;;;;;30.27;22.83;;;;;;;0.77;95.57;96386.25;1040073;28;20557;-71
2021/04/17 01:53:00;;;;;;;28.07;21.43;;;;;;;0.77;96.21;96383.63;1032047;28;20026;-72
2021/04/17 01:53:31;;;;;;;31.63;23.00;;;;;;;0.78;95.49;96379.16;1035902;28;20022;-71
2021/04/17 01:54:03;;;;;;;29.13;22.30;;;;;;;0.78;95.91;96384.41;1032022;28;20049;-72
2021/04/17 01:54:36;;;;;;;30.90;22.33;;;;;;;0.80;95.22;96385.03;1028352;28;20027;-72
2021/04/17 01:55:07;;;;;;;31.65;22.00;;;;;;;0.79;95.23;96380.78;1029453;28;20504;-71
2021/04/17 01:55:38;;;;;;;30.92;21.95;;;;;;;0.79;95.56;96380.78;1035906;28;20460;-71
2021/04/17 01:56:08;;;;;;;34.37;22.70;;;;;;;0.78;95.21;96382.59;1031956;28;20034;-72
2021/04/17 01:56:39;;;;;;;30.13;22.13;;;;;;;0.80;95.30;96378.94;1032208;28;20022;-71
2021/04/17 01:57:10;;;;;;;31.07;22.83;;;;;;;0.81;95.73;96373.47;1035866;28;20017;-72
2021/04/17 01:57:40;;;;;;;31.45;22.33;;;;;;;0.80;95.26;96371.88;1031790;28;20022;-71
2021/04/17 01:58:11;;;;;;;29.43;21.97;;;;;;;0.80;96.04;96371.88;1031814;28;20034;-71
2021/04/17 01:58:41;;;;;;;32.80;22.80;;;;;;;0.80;95.65;96382.38;1032098;28;20019;-72
2021/04/17 01:59:12;;;;;;;34.50;23.27;;;;;;;0.78;95.68;96374.72;1035895;28;20522;-72
2021/04/17 01:59:43;;;;;;;33.72;21.92;;;;;;;0.80;95.36;96368.44;1035934;28;20022;-71
2021/04/17 02:00:13;;;;;;;30.63;23.07;;;;;;;0.80;96.11;96374.50;1035975;28;20033;-71
2021/04/17 02:00:44;;;;;;;33.63;23.33;;;;;;;0.80;95.78;96377.13;1036091;28;20030;-71
2021/04/17 02:01:17;;;;;;;31.07;23.13;;;;;;;0.80;95.52;96369.22;1040074;28;20024;-71
2021/04/17 02:01:48;;;;;;;32.85;22.48;;;;;;;0.82;95.96;96379.56;1039976;28;20116;-71
2021/04/17 02:02:18;;;;;;;33.40;22.60;;;;;;;0.78;95.96;96377.34;1040157;28;20048;-71
2021/04/17 02:02:50;;;;;;;32.50;21.80;;;;;;;0.80;95.39;96368.44;1040236;28;20017;-71
2021/04/17 02:03:21;;;;;;;30.55;22.33;;;;;;;0.78;95.79;96371.25;1040198;28;20021;-71
2021/04/17 02:03:51;;;;;;;31.80;21.73;;;;;;;0.80;95.38;96379.75;1040187;28;20033;-71
2021/04/17 02:04:22;;;;;;;33.00;23.27;;;;;;;0.78;95.59;96366.81;1040281;28;20033;-72
2021/04/17 02:04:52;;;;;;;32.67;22.40;;;;;;;0.80;95.97;96371.06;1039967;28;20026;-71
2021/04/17 02:05:22;;;;;;;36.07;21.90;;;;;;;0.78;95.56;96372.06;1036035;28;20447;-71
2021/04/17 02:05:53;;;;;;;30.77;22.83;;;;;;;0.80;95.89;96373.69;1036024;28;20021;-71
2021/04/17 02:06:24;;;;;;;32.13;21.85;;;;;;;0.78;96.13;96368.63;1032033;28;20019;-72
2021/04/17 02:06:54;;;;;;;31.87;23.50;;;;;;;0.83;96.02;96378.56;1039982;28;20099;-71
2021/04/17 02:07:25;;;;;;;33.57;23.33;;;;;;;0.82;95.32;96372.50;1044168;28;20111;-71
2021/04/17 02:07:56;;;;;;;29.43;22.30;;;;;;;0.83;95.86;96365.41;1044262;28;20021;-71
2021/04/17 02:08:27;;;;;;;30.95;21.65;;;;;;;0.82;95.86;96369.88;1044492;28;20062;-71
2021/04/17 02:08:57;;;;;;;31.60;21.53;;;;;;;0.81;95.21;96370.84;1044599;28;20421;-71
2021/04/17 02:09:27;;;;;;;33.60;22.37;;;;;;;0.83;95.13;96368.03;1044699;28;20455;-71
2021/04/17 02:09:58;;;;;;;29.03;22.00;;;;;;;0.82;95.17;96367.22;1045312;28;20021;-71
2021/04/17 02:10:28;;;;;;;30.93;21.70;;;;;;;0.81;95.55;96370.03;1045364;28;20086;-71
2021/04/17 02:10:59;;;;;;;30.87;22.30;;;;;;;0.82;95.77;96371.66;1045611;28;20025;-71
2021/04/17 02:11:29;;;;;;;31.73;23.13;;;;;;;0.78;95.07;96366.81;1045087;28;20017;-71
2021/04/17 02:12:00;;;;;;;30.07;21.37;;;;;;;0.79;95.33;96370.25;1045369;28;20021;-70
2021/04/17 02:12:30;;;;;;;35.60;24.33;;;;;;;0.76;95.70;96371.44;1045285;28;20039;-70
2021/04/17 02:13:01;;;;;;;30.43;22.20;;;;;;;0.77;96.01;96375.72;1044197;28;20378;-70
2021/04/17 02:13:35;;;;;;;30.73;21.73;;;;;;;0.81;95.96;96370.03;1044231;28;20031;-70
2021/04/17 02:14:06;;;;;;;33.08;22.67;;;;;;;0.82;95.58;96369.03;1044311;28;20078;-70
2021/04/17 02:14:36;;;;;;;30.80;23.10;;;;;;;0.84;96.21;96367.03;1044515;28;20106;-70
2021/04/17 02:15:07;;;;;;;33.93;22.30;;;;;;;0.84;95.66;96370.47;1044461;28;20021;-70
2021/04/17 02:15:38;;;;;;;31.13;22.87;;;;;;;0.88;96.11;96373.53;1044326;28;20046;-70
2021/04/17 02:16:32;;;;;;;36.42;24.50;;;;;;;0.86;95.18;96372.88;1043884;28;20182;-71
2021/04/17 02:17:08;;;;;;;33.72;22.80;;;;;;;0.88;95.50;96368.25;1039606;28;20033;-70
2021/04/17 02:17:49;;;;;;;31.85;22.30;;;;;;;0.89;95.83;96372.50;1040075;28;20493;-71
2021/04/17 02:18:31;;;;;;;32.53;21.52;;;;;;;0.92;95.42;96374.72;1041401;28;20327;-70
2021/04/17 02:19:07;;;;;;;32.58;21.75;;;;;;;0.92;95.27;96369.44;1035916;28;20081;-70
2021/04/17 02:20:01;;;;;;;32.40;23.35;;;;;;;0.91;95.54;96373.09;1031944;28;20452;-71
2021/04/17 02:20:40;;;;;;;34.58;22.85;;;;;;;0.94;95.88;96368.25;1040167;28;20423;-70
2021/04/17 02:21:11;;;;;;;30.70;20.90;;;;;;;0.93;95.30;96376.38;1043928;28;20188;-71
2021/04/17 02:21:43;;;;;;;32.47;22.37;;;;;;;0.94;95.13;96370.09;1031424;28;20490;-71
2021/04/17 02:22:13;;;;;;;33.90;22.10;;;;;;;0.91;95.14;96370.47;1032702;28;20447;-71
2021/04/17 02:22:44;;;;;;;29.97;21.83;;;;;;;0.93;95.24;96368.47;1031636;28;20011;-70
2021/04/17 02:23:14;;;;;;;28.37;21.27;;;;;;;0.93;95.17;96366.66;1027799;28;20031;-71
2021/04/17 02:23:44;;;;;;;31.83;21.93;;;;;;;0.92;94.78;96370.28;1027855;28;20033;-71
2021/04/17 02:24:15;;;;;;;31.37;21.83;;;;;;;0.91;95.05;96368.66;1023788;29;20028;-72
2021/04/17 02:24:45;;;;;;;30.77;21.93;;;;;;;0.92;94.77;96372.94;1023623;28;20083;-70
2021/04/17 02:25:16;;;;;;;32.50;22.77;;;;;;;0.95;94.84;96376.97;1019853;29;20039;-70
2021/04/17 02:25:46;;;;;;;32.77;22.10;;;;;;;0.94;95.14;96370.88;1023882;28;20397;-70
2021/04/17 02:26:17;;;;;;;31.47;22.13;;;;;;;0.94;94.62;96368.25;1031974;28;20093;-71
2021/04/17 02:26:47;;;;;;;35.00;23.40;;;;;;;0.94;95.20;96365.63;1035843;28;20025;-71
2021/04/17 02:27:18;;;;;;;30.83;22.33;;;;;;;0.94;95.34;96370.09;1035830;28;20470;-70
2021/04/17 02:27:49;;;;;;;31.67;23.48;;;;;;;0.92;94.99;96369.44;1031711;28;20092;-71
2021/04/17 02:28:19;;;;;;;30.43;21.40;;;;;;;0.92;94.92;96372.09;1036047;28;20096;-70